sensor_id;sensor_type;location;lat;lon;timestamp;pressure;altitude;pressure_sealevel;temperature;humidity
57885;BME280;43703;51.060;-0.086;2023-02-18T00:00:08;100945.68;;;7.25;89.71
57885;BME280;43703;51.060;-0.086;2023-02-18T00:02:31;100956.41;;;6.69;92.53
57885;BME280;43703;51.060;-0.086;2023-02-18T00:04:55;100951.70;;;7.62;89.68
57885;BME280;43703;51.060;-0.086;2023-02-18T00:07:20;100949.80;;;7.50;89.91
57885;BME280;43703;51.060;-0.086;2023-02-18T00:09:46;100950.25;;;7.12;89.24
57885;BME280;43703;51.060;-0.086;2023-02-18T00:12:12;100941.01;;;7.40;88.75
57885;BME280;43703;51.060;-0.086;2023-02-18T00:14:37;100940.04;;;7.02;90.71
57885;BME280;43703;51.060;-0.086;2023-02-18T00:17:02;100934.75;;;7.45;88.66
57885;BME280;43703;51.060;-0.086;2023-02-18T00:19:27;100939.62;;;6.88;90.17
57885;BME280;43703;51.060;-0.086;2023-02-18T00:21:52;100939.28;;;6.79;91.83
57885;BME280;43703;51.060;-0.086;2023-02-18T00:24:18;100935.22;;;7.19;90.83
57885;BME280;43703;51.060;-0.086;2023-02-18T00:26:44;100933.38;;;6.97;91.60
57885;BME280;43703;51.060;-0.086;2023-02-18T00:29:09;100928.67;;;7.23;90.54
57885;BME280;43703;51.060;-0.086;2023-02-18T00:31:37;100930.82;;;6.85;90.26
57885;BME280;43703;51.060;-0.086;2023-02-18T00:34:01;100932.10;;;7.05;90.29
57885;BME280;43703;51.060;-0.086;2023-02-18T00:36:27;100931.58;;;8.09;86.75
57885;BME280;43703;51.060;-0.086;2023-02-18T00:38:53;100930.69;;;7.63;87.20
57885;BME280;43703;51.060;-0.086;2023-02-18T00:41:17;100935.56;;;7.05;91.28
57885;BME280;43703;51.060;-0.086;2023-02-18T00:43:43;100931.88;;;6.88;90.11
57885;BME280;43703;51.060;-0.086;2023-02-18T00:46:08;100930.54;;;6.80;89.94
57885;BME280;43703;51.060;-0.086;2023-02-18T00:48:33;100928.39;;;7.45;89.14
57885;BME280;43703;51.060;-0.086;2023-02-18T00:50:59;100931.90;;;7.23;89.07
57885;BME280;43703;51.060;-0.086;2023-02-18T00:53:23;100933.11;;;7.25;89.38
57885;BME280;43703;51.060;-0.086;2023-02-18T00:55:49;100928.72;;;7.29;88.98
57885;BME280;43703;51.060;-0.086;2023-02-18T00:58:14;100929.00;;;6.77;91.05
57885;BME280;43703;51.060;-0.086;2023-02-18T01:00:40;100927.06;;;7.00;90.57
57885;BME280;43703;51.060;-0.086;2023-02-18T01:03:05;100918.39;;;7.21;89.13
57885;BME280;43703;51.060;-0.086;2023-02-18T01:05:29;100917.25;;;7.14;89.37
57885;BME280;43703;51.060;-0.086;2023-02-18T01:07:55;100913.41;;;7.85;87.18
57885;BME280;43703;51.060;-0.086;2023-02-18T01:10:20;100904.54;;;7.85;85.50
57885;BME280;43703;51.060;-0.086;2023-02-18T01:12:47;100905.03;;;6.97;86.59
57885;BME280;43703;51.060;-0.086;2023-02-18T01:15:14;100903.54;;;7.20;89.43
57885;BME280;43703;51.060;-0.086;2023-02-18T01:17:36;100904.50;;;7.23;88.78
57885;BME280;43703;51.060;-0.086;2023-02-18T01:20:02;100902.94;;;7.09;89.54
57885;BME280;43703;51.060;-0.086;2023-02-18T01:22:26;100904.09;;;7.01;89.18
57885;BME280;43703;51.060;-0.086;2023-02-18T01:24:52;100899.74;;;6.62;90.58
57885;BME280;43703;51.060;-0.086;2023-02-18T01:27:17;100897.85;;;7.32;88.66
57885;BME280;43703;51.060;-0.086;2023-02-18T01:29:42;100902.81;;;7.09;86.91
57885;BME280;43703;51.060;-0.086;2023-02-18T01:32:07;100898.44;;;6.78;89.08
57885;BME280;43703;51.060;-0.086;2023-02-18T01:34:32;100896.52;;;6.75;87.65
57885;BME280;43703;51.060;-0.086;2023-02-18T01:36:57;100898.59;;;7.34;87.19
57885;BME280;43703;51.060;-0.086;2023-02-18T01:39:22;100901.83;;;6.80;88.33
57885;BME280;43703;51.060;-0.086;2023-02-18T01:41:47;100897.54;;;6.97;86.95
57885;BME280;43703;51.060;-0.086;2023-02-18T01:44:15;100895.90;;;7.60;85.28
57885;BME280;43703;51.060;-0.086;2023-02-18T01:46:39;100898.70;;;7.44;85.61
57885;BME280;43703;51.060;-0.086;2023-02-18T01:49:04;100895.25;;;6.82;88.60
57885;BME280;43703;51.060;-0.086;2023-02-18T01:51:33;100892.25;;;7.36;85.86
57885;BME280;43703;51.060;-0.086;2023-02-18T01:53:57;100893.78;;;6.56;89.36
57885;BME280;43703;51.060;-0.086;2023-02-18T01:56:24;100889.37;;;6.99;87.43
57885;BME280;43703;51.060;-0.086;2023-02-18T01:58:45;100887.52;;;6.97;90.02
57885;BME280;43703;51.060;-0.086;2023-02-18T02:01:10;100886.62;;;7.19;88.25
57885;BME280;43703;51.060;-0.086;2023-02-18T02:03:35;100888.36;;;6.59;88.75
57885;BME280;43703;51.060;-0.086;2023-02-18T02:06:00;100886.15;;;7.27;87.49
57885;BME280;43703;51.060;-0.086;2023-02-18T02:08:25;100882.29;;;7.28;86.39
57885;BME280;43703;51.060;-0.086;2023-02-18T02:11:03;100887.76;;;6.53;89.97
57885;BME280;43703;51.060;-0.086;2023-02-18T02:13:24;100889.02;;;7.46;87.09
57885;BME280;43703;51.060;-0.086;2023-02-18T02:15:46;100889.12;;;6.39;90.49
57885;BME280;43703;51.060;-0.086;2023-02-18T02:18:18;100887.60;;;6.71;90.74
57885;BME280;43703;51.060;-0.086;2023-02-18T02:25:37;100890.44;;;7.01;88.17
57885;BME280;43703;51.060;-0.086;2023-02-18T02:27:59;100888.49;;;6.69;86.94
57885;BME280;43703;51.060;-0.086;2023-02-18T02:30:25;100882.87;;;7.36;85.68
57885;BME280;43703;51.060;-0.086;2023-02-18T02:35:08;100878.68;;;6.88;87.57
57885;BME280;43703;51.060;-0.086;2023-02-18T02:37:34;100878.71;;;6.47;86.40
57885;BME280;43703;51.060;-0.086;2023-02-18T02:40:04;100871.72;;;6.44;85.49
57885;BME280;43703;51.060;-0.086;2023-02-18T02:42:27;100864.86;;;6.65;86.05
57885;BME280;43703;51.060;-0.086;2023-02-18T02:44:50;100863.56;;;6.79;85.80
57885;BME280;43703;51.060;-0.086;2023-02-18T02:47:18;100858.98;;;7.23;86.12
57885;BME280;43703;51.060;-0.086;2023-02-18T02:49:42;100860.86;;;6.90;84.74
57885;BME280;43703;51.060;-0.086;2023-02-18T02:52:06;100868.57;;;6.33;86.41
57885;BME280;43703;51.060;-0.086;2023-02-18T02:54:28;100874.29;;;6.67;83.80
57885;BME280;43703;51.060;-0.086;2023-02-18T02:59:22;100859.08;;;6.33;82.33
57885;BME280;43703;51.060;-0.086;2023-02-18T03:01:56;100850.67;;;6.46;79.68
57885;BME280;43703;51.060;-0.086;2023-02-18T03:04:22;100846.06;;;6.41;81.32
57885;BME280;43703;51.060;-0.086;2023-02-18T03:06:49;100841.54;;;6.33;78.34
57885;BME280;43703;51.060;-0.086;2023-02-18T03:09:06;100840.95;;;6.46;79.78
57885;BME280;43703;51.060;-0.086;2023-02-18T03:11:28;100840.26;;;6.66;76.74
57885;BME280;43703;51.060;-0.086;2023-02-18T03:13:56;100836.85;;;6.61;75.05
57885;BME280;43703;51.060;-0.086;2023-02-18T03:16:23;100837.57;;;6.61;75.67
57885;BME280;43703;51.060;-0.086;2023-02-18T03:18:45;100843.82;;;6.33;75.37
57885;BME280;43703;51.060;-0.086;2023-02-18T03:21:10;100839.34;;;6.63;73.72
57885;BME280;43703;51.060;-0.086;2023-02-18T03:23:36;100837.48;;;6.64;74.54
57885;BME280;43703;51.060;-0.086;2023-02-18T03:25:57;100831.45;;;6.76;74.85
57885;BME280;43703;51.060;-0.086;2023-02-18T03:28:23;100835.53;;;6.81;74.54
57885;BME280;43703;51.060;-0.086;2023-02-18T03:30:49;100838.18;;;7.94;72.44
57885;BME280;43703;51.060;-0.086;2023-02-18T03:33:14;100827.86;;;6.53;76.49
57885;BME280;43703;51.060;-0.086;2023-02-18T03:35:38;100822.81;;;6.87;75.03
57885;BME280;43703;51.060;-0.086;2023-02-18T03:38:08;100826.29;;;6.31;75.64
57885;BME280;43703;51.060;-0.086;2023-02-18T03:40:30;100825.77;;;6.33;75.82
57885;BME280;43703;51.060;-0.086;2023-02-18T03:42:56;100813.14;;;6.51;76.51
57885;BME280;43703;51.060;-0.086;2023-02-18T03:45:20;100798.93;;;7.28;72.59
57885;BME280;43703;51.060;-0.086;2023-02-18T03:47:45;100804.53;;;7.56;72.71
57885;BME280;43703;51.060;-0.086;2023-02-18T03:50:10;100799.64;;;7.09;73.57
57885;BME280;43703;51.060;-0.086;2023-02-18T03:52:35;100800.30;;;6.48;74.52
57885;BME280;43703;51.060;-0.086;2023-02-18T03:55:00;100809.77;;;7.11;73.13
57885;BME280;43703;51.060;-0.086;2023-02-18T03:57:25;100801.97;;;6.83;71.26
57885;BME280;43703;51.060;-0.086;2023-02-18T03:59:51;100794.31;;;6.58;73.66
57885;BME280;43703;51.060;-0.086;2023-02-18T04:02:17;100795.58;;;6.53;75.05
57885;BME280;43703;51.060;-0.086;2023-02-18T04:04:42;100790.69;;;6.48;74.19
57885;BME280;43703;51.060;-0.086;2023-02-18T04:07:07;100784.64;;;6.67;72.87
57885;BME280;43703;51.060;-0.086;2023-02-18T04:09:32;100782.18;;;6.38;74.28
57885;BME280;43703;51.060;-0.086;2023-02-18T04:11:57;100782.80;;;6.28;73.84
57885;BME280;43703;51.060;-0.086;2023-02-18T04:14:22;100784.81;;;6.61;73.99
57885;BME280;43703;51.060;-0.086;2023-02-18T04:16:47;100794.12;;;6.19;75.57
57885;BME280;43703;51.060;-0.086;2023-02-18T04:19:12;100788.17;;;6.39;75.22
57885;BME280;43703;51.060;-0.086;2023-02-18T04:21:37;100782.10;;;5.70;78.09
57885;BME280;43703;51.060;-0.086;2023-02-18T04:24:02;100783.24;;;6.13;78.19
57885;BME280;43703;51.060;-0.086;2023-02-18T04:26:27;100780.99;;;6.62;77.07
57885;BME280;43703;51.060;-0.086;2023-02-18T04:28:52;100785.03;;;6.19;78.33
57885;BME280;43703;51.060;-0.086;2023-02-18T04:31:18;100783.88;;;6.27;76.54
57885;BME280;43703;51.060;-0.086;2023-02-18T04:33:43;100784.18;;;6.57;77.08
57885;BME280;43703;51.060;-0.086;2023-02-18T04:36:08;100784.52;;;6.00;78.73
57885;BME280;43703;51.060;-0.086;2023-02-18T04:38:34;100775.76;;;6.56;76.26
57885;BME280;43703;51.060;-0.086;2023-02-18T04:40:59;100768.93;;;6.20;77.06
57885;BME280;43703;51.060;-0.086;2023-02-18T04:43:25;100763.72;;;5.66;78.89
57885;BME280;43703;51.060;-0.086;2023-02-18T04:45:51;100754.42;;;5.55;78.95
57885;BME280;43703;51.060;-0.086;2023-02-18T04:48:16;100757.56;;;5.39;79.53
57885;BME280;43703;51.060;-0.086;2023-02-18T04:50:43;100760.91;;;5.97;76.70
57885;BME280;43703;51.060;-0.086;2023-02-18T04:53:09;100762.14;;;6.05;77.69
57885;BME280;43703;51.060;-0.086;2023-02-18T04:55:32;100767.83;;;5.61;79.88
57885;BME280;43703;51.060;-0.086;2023-02-18T04:57:57;100773.50;;;6.17;77.75
57885;BME280;43703;51.060;-0.086;2023-02-18T05:00:22;100772.29;;;6.27;77.05
57885;BME280;43703;51.060;-0.086;2023-02-18T05:02:47;100768.27;;;6.09;77.46
57885;BME280;43703;51.060;-0.086;2023-02-18T05:05:13;100767.25;;;6.05;78.25
57885;BME280;43703;51.060;-0.086;2023-02-18T05:07:37;100767.45;;;5.95;77.39
57885;BME280;43703;51.060;-0.086;2023-02-18T05:10:04;100770.09;;;6.98;74.95
57885;BME280;43703;51.060;-0.086;2023-02-18T05:12:28;100771.11;;;6.08;77.17
57885;BME280;43703;51.060;-0.086;2023-02-18T05:14:53;100761.61;;;6.58;76.40
57885;BME280;43703;51.060;-0.086;2023-02-18T05:17:18;100757.58;;;6.74;74.98
57885;BME280;43703;51.060;-0.086;2023-02-18T05:19:43;100750.34;;;7.11;75.41
57885;BME280;43703;51.060;-0.086;2023-02-18T05:22:08;100750.07;;;6.04;77.57
57885;BME280;43703;51.060;-0.086;2023-02-18T05:24:33;100744.30;;;6.23;77.15
57885;BME280;43703;51.060;-0.086;2023-02-18T05:26:58;100746.79;;;6.38;76.64
57885;BME280;43703;51.060;-0.086;2023-02-18T05:29:23;100757.75;;;6.08;78.10
57885;BME280;43703;51.060;-0.086;2023-02-18T05:31:48;100754.91;;;6.22;78.12
57885;BME280;43703;51.060;-0.086;2023-02-18T05:34:14;100758.28;;;6.13;79.16
57885;BME280;43703;51.060;-0.086;2023-02-18T05:36:39;100753.65;;;5.95;78.01
57885;BME280;43703;51.060;-0.086;2023-02-18T05:39:04;100751.65;;;6.55;78.11
57885;BME280;43703;51.060;-0.086;2023-02-18T05:41:29;100751.97;;;6.33;77.24
57885;BME280;43703;51.060;-0.086;2023-02-18T05:43:55;100753.09;;;6.57;75.95
57885;BME280;43703;51.060;-0.086;2023-02-18T05:46:19;100752.41;;;6.22;78.41
57885;BME280;43703;51.060;-0.086;2023-02-18T05:48:44;100753.34;;;6.07;78.45
57885;BME280;43703;51.060;-0.086;2023-02-18T05:51:09;100757.81;;;6.65;77.07
57885;BME280;43703;51.060;-0.086;2023-02-18T05:53:34;100767.63;;;6.63;78.08
57885;BME280;43703;51.060;-0.086;2023-02-18T05:55:59;100765.42;;;5.94;79.11
57885;BME280;43703;51.060;-0.086;2023-02-18T05:58:25;100762.46;;;6.68;76.66
57885;BME280;43703;51.060;-0.086;2023-02-18T06:00:50;100757.17;;;6.11;79.21
57885;BME280;43703;51.060;-0.086;2023-02-18T06:03:15;100766.83;;;6.81;78.94
57885;BME280;43703;51.060;-0.086;2023-02-18T06:05:40;100760.51;;;6.19;78.09
57885;BME280;43703;51.060;-0.086;2023-02-18T06:08:05;100762.27;;;6.32;78.24
57885;BME280;43703;51.060;-0.086;2023-02-18T06:10:30;100762.66;;;6.95;78.48
57885;BME280;43703;51.060;-0.086;2023-02-18T06:12:55;100759.36;;;6.39;76.74
57885;BME280;43703;51.060;-0.086;2023-02-18T06:15:20;100765.23;;;6.30;78.79
57885;BME280;43703;51.060;-0.086;2023-02-18T06:17:45;100758.40;;;6.11;78.42
57885;BME280;43703;51.060;-0.086;2023-02-18T06:20:11;100758.72;;;6.02;81.02
57885;BME280;43703;51.060;-0.086;2023-02-18T06:22:36;100750.43;;;6.00;79.50
57885;BME280;43703;51.060;-0.086;2023-02-18T06:25:01;100752.19;;;6.26;78.84
57885;BME280;43703;51.060;-0.086;2023-02-18T06:27:26;100753.14;;;6.55;77.34
57885;BME280;43703;51.060;-0.086;2023-02-18T06:29:51;100752.32;;;6.48;78.72
57885;BME280;43703;51.060;-0.086;2023-02-18T06:32:16;100752.19;;;6.30;78.77
57885;BME280;43703;51.060;-0.086;2023-02-18T06:34:41;100750.44;;;6.11;79.96
57885;BME280;43703;51.060;-0.086;2023-02-18T06:37:06;100755.95;;;6.07;80.22
57885;BME280;43703;51.060;-0.086;2023-02-18T06:39:31;100752.68;;;5.84;81.54
57885;BME280;43703;51.060;-0.086;2023-02-18T06:41:56;100757.70;;;5.50;82.78
57885;BME280;43703;51.060;-0.086;2023-02-18T06:44:21;100749.80;;;6.52;80.60
57885;BME280;43703;51.060;-0.086;2023-02-18T06:46:47;100744.78;;;6.71;78.54
57885;BME280;43703;51.060;-0.086;2023-02-18T06:49:12;100746.15;;;5.80;80.72
57885;BME280;43703;51.060;-0.086;2023-02-18T06:51:37;100745.00;;;6.42;78.62
57885;BME280;43703;51.060;-0.086;2023-02-18T06:54:02;100743.06;;;6.29;79.72
57885;BME280;43703;51.060;-0.086;2023-02-18T06:56:28;100745.45;;;6.65;78.21
57885;BME280;43703;51.060;-0.086;2023-02-18T06:58:53;100742.56;;;6.87;78.13
57885;BME280;43703;51.060;-0.086;2023-02-18T07:01:18;100745.04;;;5.79;80.23
57885;BME280;43703;51.060;-0.086;2023-02-18T07:03:43;100748.49;;;7.07;76.45
57885;BME280;43703;51.060;-0.086;2023-02-18T07:06:08;100754.33;;;6.41;79.46
57885;BME280;43703;51.060;-0.086;2023-02-18T07:08:33;100751.16;;;6.91;78.30
57885;BME280;43703;51.060;-0.086;2023-02-18T07:10:58;100757.59;;;6.21;79.87
57885;BME280;43703;51.060;-0.086;2023-02-18T07:13:23;100760.04;;;6.05;80.95
57885;BME280;43703;51.060;-0.086;2023-02-18T07:15:48;100753.69;;;6.78;78.65
57885;BME280;43703;51.060;-0.086;2023-02-18T07:18:14;100754.53;;;6.32;80.22
57885;BME280;43703;51.060;-0.086;2023-02-18T07:20:39;100752.46;;;6.96;76.75
57885;BME280;43703;51.060;-0.086;2023-02-18T07:23:04;100756.28;;;6.97;76.37
57885;BME280;43703;51.060;-0.086;2023-02-18T07:25:29;100755.21;;;6.99;76.52
57885;BME280;43703;51.060;-0.086;2023-02-18T07:27:54;100746.49;;;6.95;76.25
57885;BME280;43703;51.060;-0.086;2023-02-18T07:30:19;100751.62;;;7.08;76.01
57885;BME280;43703;51.060;-0.086;2023-02-18T07:32:44;100738.94;;;6.09;79.72
57885;BME280;43703;51.060;-0.086;2023-02-18T07:35:11;100748.83;;;6.69;78.76
57885;BME280;43703;51.060;-0.086;2023-02-18T07:37:34;100741.86;;;5.80;81.09
57885;BME280;43703;51.060;-0.086;2023-02-18T07:39:59;100741.58;;;5.58;82.75
57885;BME280;43703;51.060;-0.086;2023-02-18T07:42:24;100739.93;;;5.34;84.22
57885;BME280;43703;51.060;-0.086;2023-02-18T07:44:49;100739.79;;;5.79;83.90
57885;BME280;43703;51.060;-0.086;2023-02-18T07:47:17;100742.43;;;5.60;83.51
57885;BME280;43703;51.060;-0.086;2023-02-18T07:49:40;100746.12;;;5.74;83.81
57885;BME280;43703;51.060;-0.086;2023-02-18T07:52:04;100744.21;;;6.34;81.23
57885;BME280;43703;51.060;-0.086;2023-02-18T07:54:29;100753.99;;;5.96;82.82
57885;BME280;43703;51.060;-0.086;2023-02-18T07:56:54;100752.55;;;6.25;82.13
57885;BME280;43703;51.060;-0.086;2023-02-18T07:59:19;100753.97;;;5.73;82.85
57885;BME280;43703;51.060;-0.086;2023-02-18T08:01:44;100749.98;;;6.57;80.49
57885;BME280;43703;51.060;-0.086;2023-02-18T08:04:09;100757.32;;;5.78;82.89
57885;BME280;43703;51.060;-0.086;2023-02-18T08:06:36;100744.18;;;6.39;81.41
57885;BME280;43703;51.060;-0.086;2023-02-18T08:08:59;100741.77;;;6.55;80.31
57885;BME280;43703;51.060;-0.086;2023-02-18T08:11:24;100746.74;;;6.27;80.74
57885;BME280;43703;51.060;-0.086;2023-02-18T08:13:50;100745.90;;;5.94;82.87
57885;BME280;43703;51.060;-0.086;2023-02-18T08:16:15;100758.79;;;6.17;81.90
57885;BME280;43703;51.060;-0.086;2023-02-18T08:18:40;100757.72;;;6.50;81.19
57885;BME280;43703;51.060;-0.086;2023-02-18T08:21:05;100755.84;;;6.37;80.05
57885;BME280;43703;51.060;-0.086;2023-02-18T08:23:30;100766.15;;;6.87;80.65
57885;BME280;43703;51.060;-0.086;2023-02-18T08:25:55;100766.76;;;6.20;82.41
57885;BME280;43703;51.060;-0.086;2023-02-18T08:28:22;100778.33;;;7.45;79.61
57885;BME280;43703;51.060;-0.086;2023-02-18T08:30:46;100777.86;;;6.55;78.85
57885;BME280;43703;51.060;-0.086;2023-02-18T08:33:10;100768.46;;;6.67;80.24
57885;BME280;43703;51.060;-0.086;2023-02-18T08:35:35;100764.81;;;6.16;82.66
57885;BME280;43703;51.060;-0.086;2023-02-18T08:38:00;100771.26;;;6.62;80.75
57885;BME280;43703;51.060;-0.086;2023-02-18T08:40:25;100772.02;;;6.27;81.12
57885;BME280;43703;51.060;-0.086;2023-02-18T08:42:50;100779.23;;;6.25;82.65
57885;BME280;43703;51.060;-0.086;2023-02-18T08:45:16;100781.07;;;6.44;81.79
57885;BME280;43703;51.060;-0.086;2023-02-18T08:47:43;100783.87;;;6.48;81.18
57885;BME280;43703;51.060;-0.086;2023-02-18T08:50:06;100786.85;;;6.41;82.09
57885;BME280;43703;51.060;-0.086;2023-02-18T08:52:31;100790.55;;;6.35;80.70
57885;BME280;43703;51.060;-0.086;2023-02-18T08:54:56;100789.37;;;6.40;82.05
57885;BME280;43703;51.060;-0.086;2023-02-18T08:57:21;100787.87;;;6.14;82.33
57885;BME280;43703;51.060;-0.086;2023-02-18T08:59:46;100795.62;;;6.55;81.52
57885;BME280;43703;51.060;-0.086;2023-02-18T09:02:13;100788.63;;;6.86;81.39
57885;BME280;43703;51.060;-0.086;2023-02-18T09:04:36;100787.34;;;6.94;79.61
57885;BME280;43703;51.060;-0.086;2023-02-18T09:07:02;100788.31;;;6.79;81.15
57885;BME280;43703;51.060;-0.086;2023-02-18T09:09:26;100784.99;;;7.71;77.25
57885;BME280;43703;51.060;-0.086;2023-02-18T09:11:51;100783.26;;;6.63;80.76
57885;BME280;43703;51.060;-0.086;2023-02-18T09:14:16;100784.26;;;7.14;81.14
57885;BME280;43703;51.060;-0.086;2023-02-18T09:16:41;100791.48;;;6.85;81.21
57885;BME280;43703;51.060;-0.086;2023-02-18T09:19:06;100793.73;;;6.92;81.50
57885;BME280;43703;51.060;-0.086;2023-02-18T09:21:32;100791.98;;;6.95;80.86
57885;BME280;43703;51.060;-0.086;2023-02-18T09:23:57;100788.76;;;6.48;82.21
57885;BME280;43703;51.060;-0.086;2023-02-18T09:26:22;100795.20;;;7.14;80.91
57885;BME280;43703;51.060;-0.086;2023-02-18T09:28:47;100797.45;;;7.14;79.23
57885;BME280;43703;51.060;-0.086;2023-02-18T09:31:15;100800.59;;;7.35;78.17
57885;BME280;43703;51.060;-0.086;2023-02-18T09:33:38;100799.13;;;7.20;79.60
57885;BME280;43703;51.060;-0.086;2023-02-18T09:36:02;100792.31;;;7.45;77.94
57885;BME280;43703;51.060;-0.086;2023-02-18T09:38:27;100793.90;;;7.08;80.26
57885;BME280;43703;51.060;-0.086;2023-02-18T09:40:53;100798.02;;;6.72;82.15
57885;BME280;43703;51.060;-0.086;2023-02-18T09:43:29;100785.43;;;6.94;80.17
57885;BME280;43703;51.060;-0.086;2023-02-18T09:45:43;100789.37;;;7.67;77.76
57885;BME280;43703;51.060;-0.086;2023-02-18T09:48:08;100791.60;;;7.71;77.67
57885;BME280;43703;51.060;-0.086;2023-02-18T09:50:33;100802.85;;;7.51;79.09
57885;BME280;43703;51.060;-0.086;2023-02-18T09:52:59;100806.70;;;7.60;78.38
57885;BME280;43703;51.060;-0.086;2023-02-18T09:55:26;100806.04;;;8.32;76.16
57885;BME280;43703;51.060;-0.086;2023-02-18T09:57:50;100803.12;;;7.76;77.48
57885;BME280;43703;51.060;-0.086;2023-02-18T10:00:19;100803.27;;;7.40;79.33
57885;BME280;43703;51.060;-0.086;2023-02-18T10:02:38;100799.50;;;7.98;76.66
57885;BME280;43703;51.060;-0.086;2023-02-18T10:05:03;100804.29;;;7.24;79.10
57885;BME280;43703;51.060;-0.086;2023-02-18T10:07:30;100807.09;;;7.62;78.99
57885;BME280;43703;51.060;-0.086;2023-02-18T10:09:54;100813.01;;;7.95;77.80
57885;BME280;43703;51.060;-0.086;2023-02-18T10:12:20;100810.37;;;7.79;78.02
57885;BME280;43703;51.060;-0.086;2023-02-18T10:14:47;100812.25;;;7.60;79.33
57885;BME280;43703;51.060;-0.086;2023-02-18T10:17:12;100814.38;;;8.12;77.60
57885;BME280;43703;51.060;-0.086;2023-02-18T10:19:37;100817.75;;;7.38;80.65
57885;BME280;43703;51.060;-0.086;2023-02-18T10:22:01;100817.49;;;7.86;79.43
57885;BME280;43703;51.060;-0.086;2023-02-18T10:24:28;100820.79;;;8.02;79.32
57885;BME280;43703;51.060;-0.086;2023-02-18T10:26:49;100822.02;;;7.76;77.82
57885;BME280;43703;51.060;-0.086;2023-02-18T10:29:18;100821.21;;;7.58;80.23
57885;BME280;43703;51.060;-0.086;2023-02-18T10:31:43;100815.20;;;7.72;79.12
57885;BME280;43703;51.060;-0.086;2023-02-18T10:34:12;100820.08;;;7.91;79.95
57885;BME280;43703;51.060;-0.086;2023-02-18T10:36:35;100820.66;;;7.96;80.04
57885;BME280;43703;51.060;-0.086;2023-02-18T10:39:10;100813.54;;;8.41;76.15
57885;BME280;43703;51.060;-0.086;2023-02-18T10:41:27;100822.77;;;8.71;75.79
57885;BME280;43703;51.060;-0.086;2023-02-18T10:43:50;100820.12;;;8.33;76.75
57885;BME280;43703;51.060;-0.086;2023-02-18T10:46:18;100816.39;;;8.15;78.53
57885;BME280;43703;51.060;-0.086;2023-02-18T10:48:45;100813.82;;;8.99;75.75
57885;BME280;43703;51.060;-0.086;2023-02-18T10:51:08;100816.15;;;7.84;79.19
57885;BME280;43703;51.060;-0.086;2023-02-18T10:53:31;100821.06;;;7.71;79.12
57885;BME280;43703;51.060;-0.086;2023-02-18T10:55:52;100824.66;;;7.72;79.94
57885;BME280;43703;51.060;-0.086;2023-02-18T10:58:25;100815.74;;;8.49;76.04
57885;BME280;43703;51.060;-0.086;2023-02-18T11:00:42;100821.39;;;8.15;77.75
57885;BME280;43703;51.060;-0.086;2023-02-18T11:03:15;100819.67;;;7.82;79.12
57885;BME280;43703;51.060;-0.086;2023-02-18T11:05:35;100824.97;;;7.89;79.19
57885;BME280;43703;51.060;-0.086;2023-02-18T11:07:58;100824.62;;;8.67;77.49
57885;BME280;43703;51.060;-0.086;2023-02-18T11:10:26;100822.95;;;8.89;77.28
57885;BME280;43703;51.060;-0.086;2023-02-18T11:12:50;100822.47;;;8.54;76.53
57885;BME280;43703;51.060;-0.086;2023-02-18T11:15:21;100829.90;;;8.72;77.91
57885;BME280;43703;51.060;-0.086;2023-02-18T11:17:40;100825.13;;;8.61;76.38
57885;BME280;43703;51.060;-0.086;2023-02-18T11:20:20;100825.88;;;9.04;75.65
57885;BME280;43703;51.060;-0.086;2023-02-18T11:22:34;100823.18;;;9.52;74.73
57885;BME280;43703;51.060;-0.086;2023-02-18T11:24:58;100824.92;;;8.84;74.73
57885;BME280;43703;51.060;-0.086;2023-02-18T11:27:26;100829.93;;;9.27;75.15
57885;BME280;43703;51.060;-0.086;2023-02-18T11:29:50;100820.83;;;8.86;74.95
57885;BME280;43703;51.060;-0.086;2023-02-18T11:32:13;100817.15;;;9.08;73.84
57885;BME280;43703;51.060;-0.086;2023-02-18T11:34:41;100821.14;;;8.55;77.41
57885;BME280;43703;51.060;-0.086;2023-02-18T11:37:08;100813.52;;;8.97;75.31
57885;BME280;43703;51.060;-0.086;2023-02-18T11:39:29;100819.74;;;7.95;79.03
57885;BME280;43703;51.060;-0.086;2023-02-18T11:41:57;100822.38;;;8.62;78.96
57885;BME280;43703;51.060;-0.086;2023-02-18T11:44:22;100814.48;;;8.79;77.74
57885;BME280;43703;51.060;-0.086;2023-02-18T11:49:19;100832.92;;;8.73;76.01
57885;BME280;43703;51.060;-0.086;2023-02-18T11:51:39;100835.00;;;9.04;76.56
57885;BME280;43703;51.060;-0.086;2023-02-18T11:54:05;100834.29;;;8.94;75.07
57885;BME280;43703;51.060;-0.086;2023-02-18T11:56:30;100836.97;;;8.60;77.46
57885;BME280;43703;51.060;-0.086;2023-02-18T11:58:54;100823.80;;;8.80;76.13
57885;BME280;43703;51.060;-0.086;2023-02-18T12:01:28;100828.61;;;9.24;76.50
57885;BME280;43703;51.060;-0.086;2023-02-18T12:03:50;100824.13;;;8.47;77.09
57885;BME280;43703;51.060;-0.086;2023-02-18T12:06:14;100826.62;;;8.41;77.99
57885;BME280;43703;51.060;-0.086;2023-02-18T12:08:44;100823.05;;;8.91;76.97
57885;BME280;43703;51.060;-0.086;2023-02-18T12:11:08;100819.64;;;8.22;79.84
57885;BME280;43703;51.060;-0.086;2023-02-18T12:13:33;100816.74;;;8.47;78.04
57885;BME280;43703;51.060;-0.086;2023-02-18T12:16:02;100809.77;;;9.12;76.66
57885;BME280;43703;51.060;-0.086;2023-02-18T12:20:58;100809.68;;;9.01;75.73
57885;BME280;43703;51.060;-0.086;2023-02-18T12:23:16;100810.82;;;9.43;74.99
57885;BME280;43703;51.060;-0.086;2023-02-18T12:25:42;100813.39;;;9.72;74.16
57885;BME280;43703;51.060;-0.086;2023-02-18T12:28:17;100815.17;;;9.06;76.07
57885;BME280;43703;51.060;-0.086;2023-02-18T12:30:39;100813.38;;;8.89;76.32
57885;BME280;43703;51.060;-0.086;2023-02-18T12:32:56;100817.32;;;8.73;76.78
57885;BME280;43703;51.060;-0.086;2023-02-18T12:35:31;100819.73;;;8.32;77.68
57885;BME280;43703;51.060;-0.086;2023-02-18T12:40:20;100818.01;;;9.06;76.07
57885;BME280;43703;51.060;-0.086;2023-02-18T12:42:45;100816.28;;;9.50;74.03
57885;BME280;43703;51.060;-0.086;2023-02-18T12:45:12;100810.53;;;10.12;72.53
57885;BME280;43703;51.060;-0.086;2023-02-18T12:47:34;100809.02;;;9.60;73.62
57885;BME280;43703;51.060;-0.086;2023-02-18T12:50:02;100804.32;;;9.03;74.96
57885;BME280;43703;51.060;-0.086;2023-02-18T12:52:25;100801.28;;;9.06;75.07
57885;BME280;43703;51.060;-0.086;2023-02-18T12:54:53;100803.27;;;8.81;77.95